sensor_id;sensor_type;location;lat;lon;timestamp;temperature;humidity
290;DHT22;13193;48.874;9.086;2022-08-19T00:01:37;21.40;1.00
290;DHT22;13193;48.874;9.086;2022-08-19T00:04:06;21.50;1.00
290;DHT22;13193;48.874;9.086;2022-08-19T00:06:33;21.40;1.00
290;DHT22;13193;48.874;9.086;2022-08-19T00:08:59;21.40;1.00
290;DHT22;13193;48.874;9.086;2022-08-19T00:11:25;21.40;1.00
290;DHT22;13193;48.874;9.086;2022-08-19T00:13:53;21.30;1.00
290;DHT22;13193;48.874;9.086;2022-08-19T00:16:20;21.40;1.00
290;DHT22;13193;48.874;9.086;2022-08-19T00:18:47;21.30;1.00
290;DHT22;13193;48.874;9.086;2022-08-19T00:21:14;21.40;1.00
290;DHT22;13193;48.874;9.086;2022-08-19T00:23:41;21.40;1.00
290;DHT22;13193;48.874;9.086;2022-08-19T00:26:09;21.40;1.00
290;DHT22;13193;48.874;9.086;2022-08-19T00:28:35;21.40;1.00
290;DHT22;13193;48.874;9.086;2022-08-19T00:31:03;21.40;1.00
290;DHT22;13193;48.874;9.086;2022-08-19T00:33:30;21.40;1.00
290;DHT22;13193;48.874;9.086;2022-08-19T00:35:59;21.40;1.00
290;DHT22;13193;48.874;9.086;2022-08-19T00:38:26;21.40;1.00
290;DHT22;13193;48.874;9.086;2022-08-19T00:40:52;21.40;1.00
290;DHT22;13193;48.874;9.086;2022-08-19T00:43:23;21.40;1.00
290;DHT22;13193;48.874;9.086;2022-08-19T00:45:49;21.40;1.00
290;DHT22;13193;48.874;9.086;2022-08-19T00:48:16;21.40;1.00
290;DHT22;13193;48.874;9.086;2022-08-19T00:50:44;21.40;1.00
290;DHT22;13193;48.874;9.086;2022-08-19T00:53:11;21.40;1.00
290;DHT22;13193;48.874;9.086;2022-08-19T00:55:39;21.30;1.00
290;DHT22;13193;48.874;9.086;2022-08-19T00:58:10;21.30;1.00
290;DHT22;13193;48.874;9.086;2022-08-19T01:00:37;21.30;1.00
290;DHT22;13193;48.874;9.086;2022-08-19T01:03:06;21.40;1.00
290;DHT22;13193;48.874;9.086;2022-08-19T01:05:33;21.30;1.00
290;DHT22;13193;48.874;9.086;2022-08-19T01:08:01;21.30;1.00
290;DHT22;13193;48.874;9.086;2022-08-19T01:10:32;21.30;1.00
290;DHT22;13193;48.874;9.086;2022-08-19T01:13:00;21.30;1.00
290;DHT22;13193;48.874;9.086;2022-08-19T01:15:33;21.30;1.00
290;DHT22;13193;48.874;9.086;2022-08-19T01:18:05;21.30;1.00
290;DHT22;13193;48.874;9.086;2022-08-19T01:20:31;21.30;1.00
290;DHT22;13193;48.874;9.086;2022-08-19T01:22:58;21.30;1.00
290;DHT22;13193;48.874;9.086;2022-08-19T01:25:35;21.30;1.00
290;DHT22;13193;48.874;9.086;2022-08-19T01:28:02;21.30;1.00
290;DHT22;13193;48.874;9.086;2022-08-19T01:30:32;21.30;1.00
290;DHT22;13193;48.874;9.086;2022-08-19T01:32:58;21.30;1.00
290;DHT22;13193;48.874;9.086;2022-08-19T01:35:27;21.30;1.00
290;DHT22;13193;48.874;9.086;2022-08-19T01:38:00;21.30;1.00
290;DHT22;13193;48.874;9.086;2022-08-19T01:40:29;21.30;1.00
290;DHT22;13193;48.874;9.086;2022-08-19T01:42:56;21.30;1.00
290;DHT22;13193;48.874;9.086;2022-08-19T01:45:24;21.30;1.00
290;DHT22;13193;48.874;9.086;2022-08-19T01:47:51;21.30;1.00
290;DHT22;13193;48.874;9.086;2022-08-19T01:50:17;21.30;1.00
290;DHT22;13193;48.874;9.086;2022-08-19T01:52:43;21.30;1.00
290;DHT22;13193;48.874;9.086;2022-08-19T01:55:12;21.30;1.00
290;DHT22;13193;48.874;9.086;2022-08-19T01:57:39;21.20;1.00
290;DHT22;13193;48.874;9.086;2022-08-19T02:00:10;21.20;1.00
290;DHT22;13193;48.874;9.086;2022-08-19T02:02:36;21.20;1.00
290;DHT22;13193;48.874;9.086;2022-08-19T02:05:02;21.20;1.00
290;DHT22;13193;48.874;9.086;2022-08-19T02:07:28;21.10;1.00
290;DHT22;13193;48.874;9.086;2022-08-19T02:09:54;21.10;1.00
290;DHT22;13193;48.874;9.086;2022-08-19T02:12:21;21.10;1.00
290;DHT22;13193;48.874;9.086;2022-08-19T02:14:46;21.10;1.00
290;DHT22;13193;48.874;9.086;2022-08-19T02:17:12;21.10;1.00
290;DHT22;13193;48.874;9.086;2022-08-19T02:19:38;21.10;1.00
290;DHT22;13193;48.874;9.086;2022-08-19T02:22:04;21.10;1.00
290;DHT22;13193;48.874;9.086;2022-08-19T02:24:29;21.10;1.00
290;DHT22;13193;48.874;9.086;2022-08-19T02:26:55;21.10;1.00
290;DHT22;13193;48.874;9.086;2022-08-19T02:29:21;21.10;1.00
290;DHT22;13193;48.874;9.086;2022-08-19T02:31:46;21.00;1.00
290;DHT22;13193;48.874;9.086;2022-08-19T02:34:12;21.00;1.00
290;DHT22;13193;48.874;9.086;2022-08-19T02:36:38;21.00;1.00
290;DHT22;13193;48.874;9.086;2022-08-19T02:39:03;21.00;1.00
290;DHT22;13193;48.874;9.086;2022-08-19T02:41:31;20.90;1.00
290;DHT22;13193;48.874;9.086;2022-08-19T02:44:00;20.90;1.00
290;DHT22;13193;48.874;9.086;2022-08-19T02:46:29;20.90;1.00
290;DHT22;13193;48.874;9.086;2022-08-19T02:48:58;20.90;1.00
290;DHT22;13193;48.874;9.086;2022-08-19T02:51:28;20.90;1.00
290;DHT22;13193;48.874;9.086;2022-08-19T02:53:54;20.80;1.00
290;DHT22;13193;48.874;9.086;2022-08-19T02:56:20;20.80;1.00
290;DHT22;13193;48.874;9.086;2022-08-19T02:58:46;20.80;1.00
290;DHT22;13193;48.874;9.086;2022-08-19T03:01:23;20.80;1.00
290;DHT22;13193;48.874;9.086;2022-08-19T03:03:48;20.80;1.00
290;DHT22;13193;48.874;9.086;2022-08-19T03:06:15;20.80;1.00
290;DHT22;13193;48.874;9.086;2022-08-19T03:08:43;20.70;1.00
290;DHT22;13193;48.874;9.086;2022-08-19T03:11:21;20.70;1.00
290;DHT22;13193;48.874;9.086;2022-08-19T03:13:47;20.60;1.00
290;DHT22;13193;48.874;9.086;2022-08-19T03:16:17;20.60;1.00
290;DHT22;13193;48.874;9.086;2022-08-19T03:18:43;20.60;1.00
290;DHT22;13193;48.874;9.086;2022-08-19T03:21:08;20.60;1.00
290;DHT22;13193;48.874;9.086;2022-08-19T03:23:35;20.60;1.00
290;DHT22;13193;48.874;9.086;2022-08-19T03:26:04;20.60;1.00
290;DHT22;13193;48.874;9.086;2022-08-19T03:28:30;20.60;1.00
290;DHT22;13193;48.874;9.086;2022-08-19T03:31:06;20.50;1.00
290;DHT22;13193;48.874;9.086;2022-08-19T03:33:33;20.50;1.00
290;DHT22;13193;48.874;9.086;2022-08-19T03:36:05;20.50;1.00
290;DHT22;13193;48.874;9.086;2022-08-19T03:38:32;20.50;1.00
290;DHT22;13193;48.874;9.086;2022-08-19T03:41:02;20.50;1.00
290;DHT22;13193;48.874;9.086;2022-08-19T03:43:28;20.50;1.00
290;DHT22;13193;48.874;9.086;2022-08-19T03:46:02;20.40;1.00
290;DHT22;13193;48.874;9.086;2022-08-19T03:48:29;20.30;1.00
290;DHT22;13193;48.874;9.086;2022-08-19T03:50:55;20.40;1.00
290;DHT22;13193;48.874;9.086;2022-08-19T03:53:22;20.30;1.00
290;DHT22;13193;48.874;9.086;2022-08-19T03:55:48;20.40;1.00
290;DHT22;13193;48.874;9.086;2022-08-19T03:58:14;20.30;1.00
290;DHT22;13193;48.874;9.086;2022-08-19T04:00:42;20.30;1.00
290;DHT22;13193;48.874;9.086;2022-08-19T04:03:08;20.30;1.00
290;DHT22;13193;48.874;9.086;2022-08-19T04:05:34;20.30;1.00
290;DHT22;13193;48.874;9.086;2022-08-19T04:08:00;20.30;1.00
290;DHT22;13193;48.874;9.086;2022-08-19T04:10:26;20.30;1.00
290;DHT22;13193;48.874;9.086;2022-08-19T04:12:53;20.30;1.00
290;DHT22;13193;48.874;9.086;2022-08-19T04:15:19;20.20;1.00
290;DHT22;13193;48.874;9.086;2022-08-19T04:17:45;20.20;1.00
290;DHT22;13193;48.874;9.086;2022-08-19T04:20:11;20.20;1.00
290;DHT22;13193;48.874;9.086;2022-08-19T04:22:37;20.20;1.00
290;DHT22;13193;48.874;9.086;2022-08-19T04:25:03;20.20;1.00
290;DHT22;13193;48.874;9.086;2022-08-19T04:27:29;20.20;1.00
290;DHT22;13193;48.874;9.086;2022-08-19T04:29:54;20.20;1.00
290;DHT22;13193;48.874;9.086;2022-08-19T04:32:20;20.20;1.00
290;DHT22;13193;48.874;9.086;2022-08-19T04:34:46;20.20;1.00
290;DHT22;13193;48.874;9.086;2022-08-19T04:37:12;20.20;1.00
290;DHT22;13193;48.874;9.086;2022-08-19T04:39:39;20.20;1.00
290;DHT22;13193;48.874;9.086;2022-08-19T04:42:23;20.20;1.00
290;DHT22;13193;48.874;9.086;2022-08-19T04:45:10;20.30;1.00
290;DHT22;13193;48.874;9.086;2022-08-19T04:47:37;20.20;1.00
290;DHT22;13193;48.874;9.086;2022-08-19T04:50:03;20.20;1.00
290;DHT22;13193;48.874;9.086;2022-08-19T04:52:30;20.20;1.00
290;DHT22;13193;48.874;9.086;2022-08-19T04:54:57;20.20;1.00
290;DHT22;13193;48.874;9.086;2022-08-19T04:57:23;20.30;1.00
290;DHT22;13193;48.874;9.086;2022-08-19T04:59:49;20.30;1.00
290;DHT22;13193;48.874;9.086;2022-08-19T05:02:18;20.30;1.00
290;DHT22;13193;48.874;9.086;2022-08-19T05:04:44;20.30;1.00
290;DHT22;13193;48.874;9.086;2022-08-19T05:07:09;20.30;1.00
290;DHT22;13193;48.874;9.086;2022-08-19T05:09:35;20.40;1.00
290;DHT22;13193;48.874;9.086;2022-08-19T05:12:01;20.40;1.00
290;DHT22;13193;48.874;9.086;2022-08-19T05:14:27;20.40;1.00
290;DHT22;13193;48.874;9.086;2022-08-19T05:16:54;20.40;1.00
290;DHT22;13193;48.874;9.086;2022-08-19T05:19:20;20.50;1.00
290;DHT22;13193;48.874;9.086;2022-08-19T05:22:04;20.50;1.00
290;DHT22;13193;48.874;9.086;2022-08-19T05:24:48;20.50;1.00
290;DHT22;13193;48.874;9.086;2022-08-19T05:27:14;20.60;1.00
290;DHT22;13193;48.874;9.086;2022-08-19T05:29:39;20.60;1.00
290;DHT22;13193;48.874;9.086;2022-08-19T05:32:05;20.60;1.00
290;DHT22;13193;48.874;9.086;2022-08-19T05:34:34;20.70;1.00
290;DHT22;13193;48.874;9.086;2022-08-19T05:37:02;20.70;1.00
290;DHT22;13193;48.874;9.086;2022-08-19T05:39:31;20.80;1.00
290;DHT22;13193;48.874;9.086;2022-08-19T05:42:02;20.80;1.00
290;DHT22;13193;48.874;9.086;2022-08-19T05:44:31;20.80;1.00
290;DHT22;13193;48.874;9.086;2022-08-19T05:46:58;20.80;1.00
290;DHT22;13193;48.874;9.086;2022-08-19T05:49:25;20.80;1.00
290;DHT22;13193;48.874;9.086;2022-08-19T05:51:52;20.80;1.00
290;DHT22;13193;48.874;9.086;2022-08-19T05:54:20;20.80;1.00
290;DHT22;13193;48.874;9.086;2022-08-19T05:56:46;20.80;1.00
290;DHT22;13193;48.874;9.086;2022-08-19T05:59:14;20.90;1.00
290;DHT22;13193;48.874;9.086;2022-08-19T06:01:42;20.90;1.00
290;DHT22;13193;48.874;9.086;2022-08-19T06:04:08;20.80;1.00
290;DHT22;13193;48.874;9.086;2022-08-19T06:06:34;20.90;1.00
290;DHT22;13193;48.874;9.086;2022-08-19T06:09:05;20.90;1.00
290;DHT22;13193;48.874;9.086;2022-08-19T06:11:32;20.90;1.00
290;DHT22;13193;48.874;9.086;2022-08-19T06:14:05;20.90;1.00
290;DHT22;13193;48.874;9.086;2022-08-19T06:16:34;20.90;1.00
290;DHT22;13193;48.874;9.086;2022-08-19T06:19:03;20.90;1.00
290;DHT22;13193;48.874;9.086;2022-08-19T06:21:31;20.80;1.00
290;DHT22;13193;48.874;9.086;2022-08-19T06:23:59;20.80;1.00
290;DHT22;13193;48.874;9.086;2022-08-19T06:26:25;20.80;1.00
290;DHT22;13193;48.874;9.086;2022-08-19T06:28:52;20.80;1.00
290;DHT22;13193;48.874;9.086;2022-08-19T06:31:20;20.90;1.00
290;DHT22;13193;48.874;9.086;2022-08-19T06:33:48;20.90;1.00
290;DHT22;13193;48.874;9.086;2022-08-19T06:36:40;21.00;1.00
290;DHT22;13193;48.874;9.086;2022-08-19T06:39:09;21.00;1.00
290;DHT22;13193;48.874;9.086;2022-08-19T06:41:38;21.00;1.00
290;DHT22;13193;48.874;9.086;2022-08-19T06:44:05;21.00;1.00
290;DHT22;13193;48.874;9.086;2022-08-19T06:46:30;21.00;1.00
290;DHT22;13193;48.874;9.086;2022-08-19T06:48:57;21.10;1.00
290;DHT22;13193;48.874;9.086;2022-08-19T06:51:24;21.10;1.00
290;DHT22;13193;48.874;9.086;2022-08-19T06:53:51;21.20;1.00
290;DHT22;13193;48.874;9.086;2022-08-19T06:56:20;21.20;1.00
290;DHT22;13193;48.874;9.086;2022-08-19T06:58:46;21.20;1.00
290;DHT22;13193;48.874;9.086;2022-08-19T07:01:12;21.20;1.00
290;DHT22;13193;48.874;9.086;2022-08-19T07:03:38;21.20;1.00
290;DHT22;13193;48.874;9.086;2022-08-19T07:06:06;21.20;1.00
290;DHT22;13193;48.874;9.086;2022-08-19T07:08:32;21.30;1.00
290;DHT22;13193;48.874;9.086;2022-08-19T07:10:58;21.40;1.00
290;DHT22;13193;48.874;9.086;2022-08-19T07:13:24;21.40;1.00
290;DHT22;13193;48.874;9.086;2022-08-19T07:15:50;21.40;1.00
290;DHT22;13193;48.874;9.086;2022-08-19T07:18:18;21.50;1.00
290;DHT22;13193;48.874;9.086;2022-08-19T07:20:44;21.60;1.00
290;DHT22;13193;48.874;9.086;2022-08-19T07:23:10;21.60;1.00
290;DHT22;13193;48.874;9.086;2022-08-19T07:25:37;21.70;1.00
290;DHT22;13193;48.874;9.086;2022-08-19T07:28:03;21.90;1.00
290;DHT22;13193;48.874;9.086;2022-08-19T07:30:29;22.10;1.00
290;DHT22;13193;48.874;9.086;2022-08-19T07:32:55;22.30;1.00
290;DHT22;13193;48.874;9.086;2022-08-19T07:35:22;22.40;1.00
290;DHT22;13193;48.874;9.086;2022-08-19T07:37:49;22.50;1.00
290;DHT22;13193;48.874;9.086;2022-08-19T07:40:14;22.60;1.00
290;DHT22;13193;48.874;9.086;2022-08-19T07:42:40;22.60;1.00
290;DHT22;13193;48.874;9.086;2022-08-19T07:45:08;22.60;1.00
290;DHT22;13193;48.874;9.086;2022-08-19T07:47:35;22.60;1.00
290;DHT22;13193;48.874;9.086;2022-08-19T07:50:01;22.50;1.00
290;DHT22;13193;48.874;9.086;2022-08-19T07:52:30;22.30;1.00
290;DHT22;13193;48.874;9.086;2022-08-19T07:54:55;22.20;1.00
290;DHT22;13193;48.874;9.086;2022-08-19T07:57:21;22.20;1.00
290;DHT22;13193;48.874;9.086;2022-08-19T07:59:46;22.20;1.00
290;DHT22;13193;48.874;9.086;2022-08-19T08:02:12;22.20;1.00
290;DHT22;13193;48.874;9.086;2022-08-19T08:04:38;22.20;1.00
290;DHT22;13193;48.874;9.086;2022-08-19T08:07:22;22.20;1.00
290;DHT22;13193;48.874;9.086;2022-08-19T08:10:07;22.10;1.00
290;DHT22;13193;48.874;9.086;2022-08-19T08:12:38;22.00;1.00
290;DHT22;13193;48.874;9.086;2022-08-19T08:15:10;21.90;1.00
290;DHT22;13193;48.874;9.086;2022-08-19T08:17:37;21.90;1.00
290;DHT22;13193;48.874;9.086;2022-08-19T08:20:05;21.80;1.00
290;DHT22;13193;48.874;9.086;2022-08-19T08:22:33;21.80;1.00
290;DHT22;13193;48.874;9.086;2022-08-19T08:25:21;21.80;1.00
290;DHT22;13193;48.874;9.086;2022-08-19T08:27:48;21.90;1.00
290;DHT22;13193;48.874;9.086;2022-08-19T08:30:20;21.90;1.00
290;DHT22;13193;48.874;9.086;2022-08-19T08:32:47;21.90;1.00
290;DHT22;13193;48.874;9.086;2022-08-19T08:35:15;21.90;1.00
290;DHT22;13193;48.874;9.086;2022-08-19T08:37:42;22.00;1.00
290;DHT22;13193;48.874;9.086;2022-08-19T08:40:42;22.10;1.00
290;DHT22;13193;48.874;9.086;2022-08-19T08:48:53;22.30;1.00
290;DHT22;13193;48.874;9.086;2022-08-19T08:51:29;22.40;1.00
290;DHT22;13193;48.874;9.086;2022-08-19T08:53:59;22.40;1.00
290;DHT22;13193;48.874;9.086;2022-08-19T08:56:25;22.50;1.00
290;DHT22;13193;48.874;9.086;2022-08-19T09:01:23;22.60;1.00
290;DHT22;13193;48.874;9.086;2022-08-19T09:03:49;22.60;1.00
290;DHT22;13193;48.874;9.086;2022-08-19T09:16:42;23.30;1.00
290;DHT22;13193;48.874;9.086;2022-08-19T09:19:10;23.50;1.00
290;DHT22;13193;48.874;9.086;2022-08-19T09:21:36;23.70;1.00
290;DHT22;13193;48.874;9.086;2022-08-19T09:24:04;23.90;1.00
290;DHT22;13193;48.874;9.086;2022-08-19T09:26:30;24.10;1.00
290;DHT22;13193;48.874;9.086;2022-08-19T09:28:58;24.20;1.00
290;DHT22;13193;48.874;9.086;2022-08-19T09:31:27;24.30;1.00
290;DHT22;13193;48.874;9.086;2022-08-19T09:33:53;24.30;1.00
290;DHT22;13193;48.874;9.086;2022-08-19T09:36:23;24.20;1.00
290;DHT22;13193;48.874;9.086;2022-08-19T09:38:51;24.00;1.00
290;DHT22;13193;48.874;9.086;2022-08-19T09:41:19;23.90;1.00
290;DHT22;13193;48.874;9.086;2022-08-19T09:43:47;23.90;1.00
290;DHT22;13193;48.874;9.086;2022-08-19T09:46:13;23.70;1.00
290;DHT22;13193;48.874;9.086;2022-08-19T09:48:41;23.60;1.00
290;DHT22;13193;48.874;9.086;2022-08-19T09:51:12;23.50;1.00
290;DHT22;13193;48.874;9.086;2022-08-19T09:53:42;23.50;1.00
290;DHT22;13193;48.874;9.086;2022-08-19T09:56:08;23.50;1.00
290;DHT22;13193;48.874;9.086;2022-08-19T09:58:37;23.50;1.00
290;DHT22;13193;48.874;9.086;2022-08-19T10:01:04;23.50;1.00
290;DHT22;13193;48.874;9.086;2022-08-19T10:03:31;23.60;1.00
290;DHT22;13193;48.874;9.086;2022-08-19T10:06:00;23.60;1.00
290;DHT22;13193;48.874;9.086;2022-08-19T10:08:29;23.60;1.00
290;DHT22;13193;48.874;9.086;2022-08-19T10:10:56;23.60;1.00
290;DHT22;13193;48.874;9.086;2022-08-19T10:13:24;23.60;1.00
290;DHT22;13193;48.874;9.086;2022-08-19T10:15:52;23.60;1.00
290;DHT22;13193;48.874;9.086;2022-08-19T10:18:20;23.60;1.00
290;DHT22;13193;48.874;9.086;2022-08-19T10:20:48;23.70;1.00
290;DHT22;13193;48.874;9.086;2022-08-19T10:23:14;23.80;1.00
290;DHT22;13193;48.874;9.086;2022-08-19T10:25:41;23.80;1.00
290;DHT22;13193;48.874;9.086;2022-08-19T10:28:08;23.90;1.00
290;DHT22;13193;48.874;9.086;2022-08-19T10:30:35;24.10;1.00
290;DHT22;13193;48.874;9.086;2022-08-19T10:33:01;24.20;1.00
290;DHT22;13193;48.874;9.086;2022-08-19T10:35:26;24.30;1.00
290;DHT22;13193;48.874;9.086;2022-08-19T10:37:55;24.40;1.00
290;DHT22;13193;48.874;9.086;2022-08-19T10:40:25;24.50;1.00
290;DHT22;13193;48.874;9.086;2022-08-19T10:42:51;24.60;1.00
290;DHT22;13193;48.874;9.086;2022-08-19T10:45:17;24.70;1.00
290;DHT22;13193;48.874;9.086;2022-08-19T10:47:42;24.80;1.00
290;DHT22;13193;48.874;9.086;2022-08-19T10:50:08;25.00;1.00
290;DHT22;13193;48.874;9.086;2022-08-19T10:52:52;25.20;1.00
290;DHT22;13193;48.874;9.086;2022-08-19T10:55:23;25.30;1.00
290;DHT22;13193;48.874;9.086;2022-08-19T10:58:12;25.50;1.00
290;DHT22;13193;48.874;9.086;2022-08-19T11:00:39;25.50;1.00
290;DHT22;13193;48.874;9.086;2022-08-19T11:03:06;25.70;1.00
290;DHT22;13193;48.874;9.086;2022-08-19T11:05:31;25.60;1.00
290;DHT22;13193;48.874;9.086;2022-08-19T11:07:59;25.50;1.00
290;DHT22;13193;48.874;9.086;2022-08-19T11:10:25;25.50;1.00
290;DHT22;13193;48.874;9.086;2022-08-19T11:12:50;25.40;1.00
290;DHT22;13193;48.874;9.086;2022-08-19T11:15:20;25.30;1.00
290;DHT22;13193;48.874;9.086;2022-08-19T11:17:45;25.30;1.00
290;DHT22;13193;48.874;9.086;2022-08-19T11:20:12;25.20;1.00
290;DHT22;13193;48.874;9.086;2022-08-19T11:22:41;25.30;1.00
290;DHT22;13193;48.874;9.086;2022-08-19T11:25:09;25.30;1.00
290;DHT22;13193;48.874;9.086;2022-08-19T11:27:40;25.20;1.00
290;DHT22;13193;48.874;9.086;2022-08-19T11:30:11;25.20;1.00
290;DHT22;13193;48.874;9.086;2022-08-19T11:32:37;25.30;1.00
290;DHT22;13193;48.874;9.086;2022-08-19T11:35:03;25.40;1.00
290;DHT22;13193;48.874;9.086;2022-08-19T11:37:29;25.50;1.00
290;DHT22;13193;48.874;9.086;2022-08-19T11:39:54;25.70;1.00
290;DHT22;13193;48.874;9.086;2022-08-19T11:42:20;25.70;1.00
290;DHT22;13193;48.874;9.086;2022-08-19T11:45:06;25.80;1.00
290;DHT22;13193;48.874;9.086;2022-08-19T11:47:32;25.90;1.00
290;DHT22;13193;48.874;9.086;2022-08-19T11:49:58;25.90;1.00
290;DHT22;13193;48.874;9.086;2022-08-19T11:52:24;26.10;1.00
290;DHT22;13193;48.874;9.086;2022-08-19T11:54:51;26.30;1.00
290;DHT22;13193;48.874;9.086;2022-08-19T11:57:17;26.60;1.00
290;DHT22;13193;48.874;9.086;2022-08-19T11:59:51;26.90;1.00
290;DHT22;13193;48.874;9.086;2022-08-19T12:02:18;27.20;1.00
290;DHT22;13193;48.874;9.086;2022-08-19T12:04:44;27.40;1.00
290;DHT22;13193;48.874;9.086;2022-08-19T12:07:10;27.40;1.00
290;DHT22;13193;48.874;9.086;2022-08-19T12:09:35;27.30;1.00
290;DHT22;13193;48.874;9.086;2022-08-19T12:12:01;27.10;1.00
290;DHT22;13193;48.874;9.086;2022-08-19T12:14:29;26.80;1.00
290;DHT22;13193;48.874;9.086;2022-08-19T12:16:56;26.60;1.00
290;DHT22;13193;48.874;9.086;2022-08-19T12:19:22;26.30;1.00
290;DHT22;13193;48.874;9.086;2022-08-19T12:21:48;26.10;1.00
290;DHT22;13193;48.874;9.086;2022-08-19T12:24:14;25.90;1.00
290;DHT22;13193;48.874;9.086;2022-08-19T12:26:39;25.90;1.00
290;DHT22;13193;48.874;9.086;2022-08-19T12:29:05;26.00;1.00
290;DHT22;13193;48.874;9.086;2022-08-19T12:31:31;26.20;1.00
290;DHT22;13193;48.874;9.086;2022-08-19T12:33:57;26.40;1.00
290;DHT22;13193;48.874;9.086;2022-08-19T12:36:23;26.60;1.00
290;DHT22;13193;48.874;9.086;2022-08-19T12:38:49;26.70;1.00
290;DHT22;13193;48.874;9.086;2022-08-19T12:41:16;26.90;1.00
290;DHT22;13193;48.874;9.086;2022-08-19T12:43:44;27.10;1.00
290;DHT22;13193;48.874;9.086;2022-08-19T12:46:10;27.20;1.00
290;DHT22;13193;48.874;9.086;2022-08-19T12:48:37;27.30;1.00
290;DHT22;13193;48.874;9.086;2022-08-19T12:51:10;27.30;1.00
290;DHT22;13193;48.874;9.086;2022-08-19T12:53:36;27.30;1.00
290;DHT22;13193;48.874;9.086;2022-08-19T12:56:03;27.30;1.00
290;DHT22;13193;48.874;9.086;2022-08-19T12:58:29;27.10;1.00
290;DHT22;13193;48.874;9.086;2022-08-19T13:00:55;27.10;1.00
290;DHT22;13193;48.874;9.086;2022-08-19T13:03:21;27.10;1.00
290;DHT22;13193;48.874;9.086;2022-08-19T13:05:50;27.00;1.00
290;DHT22;13193;48.874;9.086;2022-08-19T13:08:16;26.80;1.00
290;DHT22;13193;48.874;9.086;2022-08-19T13:10:42;26.60;1.00
290;DHT22;13193;48.874;9.086;2022-08-19T13:13:08;26.50;1.00
290;DHT22;13193;48.874;9.086;2022-08-19T13:15:37;26.40;1.00
290;DHT22;13193;48.874;9.086;2022-08-19T13:18:05;26.40;1.00
290;DHT22;13193;48.874;9.086;2022-08-19T13:20:31;26.30;1.00
290;DHT22;13193;48.874;9.086;2022-08-19T13:22:56;26.30;1.00
290;DHT22;13193;48.874;9.086;2022-08-19T13:25:22;26.40;1.00
290;DHT22;13193;48.874;9.086;2022-08-19T13:27:49;26.40;1.00
290;DHT22;13193;48.874;9.086;2022-08-19T13:30:16;26.40;1.00
290;DHT22;13193;48.874;9.086;2022-08-19T13:33:01;26.40;1.00
290;DHT22;13193;48.874;9.086;2022-08-19T13:35:45;26.40;1.00
290;DHT22;13193;48.874;9.086;2022-08-19T13:38:12;26.40;1.00
290;DHT22;13193;48.874;9.086;2022-08-19T13:40:39;26.40;1.00
290;DHT22;13193;48.874;9.086;2022-08-19T13:43:05;26.40;1.00
290;DHT22;13193;48.874;9.086;2022-08-19T13:45:32;26.40;1.00
290;DHT22;13193;48.874;9.086;2022-08-19T13:47:59;26.50;1.00
290;DHT22;13193;48.874;9.086;2022-08-19T13:50:28;26.50;1.00
290;DHT22;13193;48.874;9.086;2022-08-19T13:52:55;26.70;1.00
290;DHT22;13193;48.874;9.086;2022-08-19T13:55:21;26.80;1.00
290;DHT22;13193;48.874;9.086;2022-08-19T13:57:55;27.00;1.00
290;DHT22;13193;48.874;9.086;2022-08-19T14:00:22;27.20;1.00
290;DHT22;13193;48.874;9.086;2022-08-19T14:02:51;27.40;1.00
290;DHT22;13193;48.874;9.086;2022-08-19T14:05:18;27.70;1.00
290;DHT22;13193;48.874;9.086;2022-08-19T14:07:44;27.90;1.00
290;DHT22;13193;48.874;9.086;2022-08-19T14:10:12;28.10;1.00
290;DHT22;13193;48.874;9.086;2022-08-19T14:12:38;28.30;1.00
290;DHT22;13193;48.874;9.086;2022-08-19T14:15:06;28.60;1.00
290;DHT22;13193;48.874;9.086;2022-08-19T14:17:31;28.70;1.00
290;DHT22;13193;48.874;9.086;2022-08-19T14:20:01;28.90;1.00
290;DHT22;13193;48.874;9.086;2022-08-19T14:22:29;29.10;1.00
290;DHT22;13193;48.874;9.086;2022-08-19T14:24:56;29.20;1.00
290;DHT22;13193;48.874;9.086;2022-08-19T14:27:22;29.20;1.00
290;DHT22;13193;48.874;9.086;2022-08-19T14:29:51;29.20;1.00
290;DHT22;13193;48.874;9.086;2022-08-19T14:32:17;29.20;1.00
290;DHT22;13193;48.874;9.086;2022-08-19T14:34:42;29.30;1.00
290;DHT22;13193;48.874;9.086;2022-08-19T14:37:14;29.20;1.00
290;DHT22;13193;48.874;9.086;2022-08-19T14:39:42;29.00;1.00
290;DHT22;13193;48.874;9.086;2022-08-19T14:42:10;28.90;1.00
290;DHT22;13193;48.874;9.086;2022-08-19T14:44:36;28.80;1.00
290;DHT22;13193;48.874;9.086;2022-08-19T14:47:02;28.70;1.00
290;DHT22;13193;48.874;9.086;2022-08-19T14:49:28;28.60;1.00
290;DHT22;13193;48.874;9.086;2022-08-19T14:51:56;28.60;1.00
290;DHT22;13193;48.874;9.086;2022-08-19T14:54:24;28.50;1.00
290;DHT22;13193;48.874;9.086;2022-08-19T14:56:53;28.60;1.00
290;DHT22;13193;48.874;9.086;2022-08-19T14:59:19;28.60;1.00
290;DHT22;13193;48.874;9.086;2022-08-19T15:01:44;28.60;1.00
290;DHT22;13193;48.874;9.086;2022-08-19T15:04:10;28.60;1.00
290;DHT22;13193;48.874;9.086;2022-08-19T15:06:36;28.60;1.00
290;DHT22;13193;48.874;9.086;2022-08-19T15:09:03;28.60;1.00
290;DHT22;13193;48.874;9.086;2022-08-19T15:11:29;28.70;1.00
290;DHT22;13193;48.874;9.086;2022-08-19T15:14:02;28.70;1.00
290;DHT22;13193;48.874;9.086;2022-08-19T15:16:28;28.60;1.00
290;DHT22;13193;48.874;9.086;2022-08-19T15:18:57;28.60;1.00
290;DHT22;13193;48.874;9.086;2022-08-19T15:21:26;28.60;1.00
290;DHT22;13193;48.874;9.086;2022-08-19T15:23:53;28.70;1.00
290;DHT22;13193;48.874;9.086;2022-08-19T15:26:19;28.60;1.00
290;DHT22;13193;48.874;9.086;2022-08-19T15:28:48;28.60;1.00
290;DHT22;13193;48.874;9.086;2022-08-19T15:31:17;28.50;1.00
290;DHT22;13193;48.874;9.086;2022-08-19T15:33:43;28.50;1.00
290;DHT22;13193;48.874;9.086;2022-08-19T15:36:10;28.50;1.00
290;DHT22;13193;48.874;9.086;2022-08-19T15:38:37;28.40;1.00
290;DHT22;13193;48.874;9.086;2022-08-19T15:41:03;28.50;1.00
290;DHT22;13193;48.874;9.086;2022-08-19T15:43:53;28.40;1.00
290;DHT22;13193;48.874;9.086;2022-08-19T15:46:25;28.30;1.00
290;DHT22;13193;48.874;9.086;2022-08-19T15:48:53;28.30;1.00
290;DHT22;13193;48.874;9.086;2022-08-19T15:51:20;28.10;1.00
290;DHT22;13193;48.874;9.086;2022-08-19T15:53:48;28.10;1.00
290;DHT22;13193;48.874;9.086;2022-08-19T15:56:14;27.90;1.00
290;DHT22;13193;48.874;9.086;2022-08-19T15:58:41;27.80;1.00
290;DHT22;13193;48.874;9.086;2022-08-19T16:01:25;27.70;1.00
290;DHT22;13193;48.874;9.086;2022-08-19T16:04:09;27.60;1.00
290;DHT22;13193;48.874;9.086;2022-08-19T16:06:56;27.60;1.00
290;DHT22;13193;48.874;9.086;2022-08-19T16:09:24;27.50;1.00
290;DHT22;13193;48.874;9.086;2022-08-19T16:11:57;27.40;1.00
290;DHT22;13193;48.874;9.086;2022-08-19T16:14:23;27.20;1.00
290;DHT22;13193;48.874;9.086;2022-08-19T16:16:49;26.90;1.00
290;DHT22;13193;48.874;9.086;2022-08-19T16:19:16;26.60;1.00
290;DHT22;13193;48.874;9.086;2022-08-19T16:21:47;26.40;1.00
290;DHT22;13193;48.874;9.086;2022-08-19T16:24:14;26.20;1.00
290;DHT22;13193;48.874;9.086;2022-08-19T16:26:41;26.10;1.00
290;DHT22;13193;48.874;9.086;2022-08-19T16:29:08;26.00;1.00
290;DHT22;13193;48.874;9.086;2022-08-19T16:31:37;25.90;1.00
290;DHT22;13193;48.874;9.086;2022-08-19T16:34:04;25.70;1.00
290;DHT22;13193;48.874;9.086;2022-08-19T16:36:30;25.60;1.00
290;DHT22;13193;48.874;9.086;2022-08-19T16:38:56;25.50;1.00
290;DHT22;13193;48.874;9.086;2022-08-19T16:41:22;25.30;1.00